Time;durP1;ratioP1;P1;durP2;ratioP2;P2;SDS_P1;SDS_P2;PMS_P1;PMS_P2;Temp;Humidity;BMP_temperature;BMP_pressure;BME280_temperature;BME280_humidity;BME280_pressure;Samples;Min_cycle;Max_cycle;Signal;HPM_P1;HPM_P2
2023/08/22 00:00:16;;;;;;;6.00;5.20;;;;;;;30.17;40.83;100983.16;103595;1290;61395;-80
2023/08/22 00:02:42;;;;;;;6.20;5.30;;;;;;;30.18;40.81;100985.14;103549;1285;61864;-80
2023/08/22 00:05:08;;;;;;;6.10;5.30;;;;;;;30.17;40.95;100986.26;103570;1289;61411;-80
2023/08/22 00:07:33;;;;;;;6.90;5.30;;;;;;;30.17;40.89;100987.52;103564;1285;61364;-80
2023/08/22 00:09:59;;;;;;;6.90;5.40;;;;;;;30.17;40.86;100990.05;103745;1286;61462;-80
2023/08/22 00:12:25;;;;;;;6.00;5.40;;;;;;;30.17;40.93;100989.17;103677;1285;63769;-80
2023/08/22 00:14:51;;;;;;;6.10;5.00;;;;;;;30.17;40.88;100990.82;103622;1291;61392;-80
2023/08/22 00:17:17;;;;;;;6.10;5.40;;;;;;;30.17;40.90;100990.61;103500;1284;61315;-80
2023/08/22 00:19:43;;;;;;;7.60;5.10;;;;;;;30.17;40.92;100988.83;103603;1289;61364;-80
2023/08/22 00:22:08;;;;;;;7.20;5.40;;;;;;;30.17;40.98;100987.95;103596;1284;61411;-80
2023/08/22 00:24:35;;;;;;;8.00;5.80;;;;;;;30.17;40.79;100985.95;103609;1285;61355;-80
2023/08/22 00:27:01;;;;;;;6.30;5.10;;;;;;;30.17;40.90;100991.02;103599;1284;65927;-81
2023/08/22 00:29:27;;;;;;;6.70;5.40;;;;;;;30.17;40.89;100991.75;103572;1286;61723;-80
2023/08/22 00:31:53;;;;;;;7.70;5.00;;;;;;;30.16;40.96;100991.41;103588;1284;61351;-80
2023/08/22 00:34:19;;;;;;;6.80;5.40;;;;;;;30.16;40.93;100989.45;103538;1285;61359;-80
2023/08/22 00:36:44;;;;;;;6.60;5.00;;;;;;;30.16;40.97;100988.15;103599;1288;61401;-80
2023/08/22 00:39:10;;;;;;;6.30;5.20;;;;;;;30.17;41.05;100988.11;103559;1285;61375;-80
2023/08/22 00:41:35;;;;;;;6.90;5.70;;;;;;;30.17;41.04;100987.41;103589;1285;61472;-80
2023/08/22 00:44:01;;;;;;;6.40;5.30;;;;;;;30.17;41.05;100992.27;103705;1284;62567;-80
2023/08/22 00:46:27;;;;;;;6.80;5.30;;;;;;;30.16;41.11;100990.16;103536;1284;61362;-80
2023/08/22 00:48:53;;;;;;;7.70;5.30;;;;;;;30.16;41.06;100985.64;103604;1284;61707;-79
2023/08/22 00:51:19;;;;;;;6.30;5.20;;;;;;;30.16;40.93;100985.29;103546;1290;61828;-79
2023/08/22 00:53:44;;;;;;;6.20;5.20;;;;;;;30.16;41.10;100986.96;103605;1284;61470;-80
2023/08/22 00:56:10;;;;;;;6.60;5.40;;;;;;;30.16;40.86;100992.56;103605;1285;61378;-80
2023/08/22 00:58:35;;;;;;;6.30;5.40;;;;;;;30.15;40.98;100988.86;103599;1289;63959;-80
2023/08/22 01:01:02;;;;;;;6.90;5.90;;;;;;;30.15;40.98;100990.46;103656;1290;61369;-80
2023/08/22 01:03:28;;;;;;;6.50;5.50;;;;;;;30.15;40.90;100990.67;103533;1285;61459;-81
2023/08/22 01:06:04;;;;;;;6.30;5.40;;;;;;;30.16;41.04;100988.09;103661;1289;61301;-80
2023/08/22 01:08:34;;;;;;;6.60;5.60;;;;;;;30.15;41.11;100988.29;103722;1285;63870;-80
2023/08/22 01:11:11;;;;;;;7.10;5.50;;;;;;;30.15;40.98;100988.31;103576;1285;65819;-80
2023/08/22 01:13:38;;;;;;;6.00;5.30;;;;;;;30.15;40.97;100985.63;103641;1289;61292;-80
2023/08/22 01:16:04;;;;;;;6.40;4.90;;;;;;;30.14;40.99;100982.02;103454;1284;61379;-80
2023/08/22 01:18:29;;;;;;;7.30;5.30;;;;;;;30.14;40.97;100986.00;103670;1285;61459;-80
2023/08/22 01:21:04;;;;;;;8.10;5.90;;;;;;;30.14;41.04;100983.52;103597;1285;61362;-80
2023/08/22 01:23:29;;;;;;;6.10;5.50;;;;;;;30.14;41.08;100987.09;103568;1285;61317;-80
2023/08/22 01:25:55;;;;;;;6.30;5.40;;;;;;;30.14;41.00;100988.55;103635;1284;61331;-80
2023/08/22 01:28:34;;;;;;;7.20;5.40;;;;;;;30.15;41.15;100985.98;103644;1285;61552;-80
2023/08/22 01:31:45;;;;;;;6.40;5.50;;;;;;;30.14;41.04;100989.36;103605;1288;65970;-80
2023/08/22 01:34:18;;;;;;;6.10;5.40;;;;;;;30.13;41.03;100993.06;103055;1291;61482;-80
2023/08/22 01:36:43;;;;;;;8.30;5.60;;;;;;;30.13;41.16;100993.95;103042;1293;61498;-79
2023/08/22 01:39:09;;;;;;;6.90;5.80;;;;;;;30.14;41.17;100989.91;102884;1291;61578;-80
2023/08/22 01:41:35;;;;;;;6.90;5.60;;;;;;;30.13;41.01;100989.56;103051;1296;61559;-80
2023/08/22 01:44:03;;;;;;;6.80;5.90;;;;;;;30.14;41.29;100990.59;102993;1291;61469;-79
2023/08/22 01:46:30;;;;;;;6.30;5.60;;;;;;;30.14;41.20;100987.89;103080;1291;61351;-80
2023/08/22 01:48:55;;;;;;;6.20;5.60;;;;;;;30.14;41.18;100988.10;102985;1297;61368;-79
2023/08/22 01:51:21;;;;;;;6.60;5.40;;;;;;;30.14;41.30;100993.52;103165;1291;61348;-80
2023/08/22 01:53:47;;;;;;;6.80;5.70;;;;;;;30.13;41.21;100989.57;103045;1291;61589;-80
2023/08/22 01:56:13;;;;;;;5.80;5.20;;;;;;;30.14;41.17;100989.36;103070;1291;61584;-80
2023/08/22 01:58:38;;;;;;;6.90;5.60;;;;;;;30.13;41.05;100989.95;103036;1294;61399;-80
2023/08/22 02:01:11;;;;;;;6.50;5.60;;;;;;;30.13;41.18;100987.59;102964;1291;64910;-80
2023/08/22 02:03:38;;;;;;;7.40;5.90;;;;;;;30.13;41.31;100988.14;103006;1296;74359;-79
2023/08/22 02:06:04;;;;;;;6.90;5.60;;;;;;;30.13;41.21;100989.94;103117;1291;61371;-80
2023/08/22 02:08:31;;;;;;;6.90;6.10;;;;;;;30.13;41.17;100987.43;103242;1285;61402;-80
2023/08/22 02:10:56;;;;;;;6.90;5.60;;;;;;;30.13;41.34;100988.55;103502;1290;61534;-80
2023/08/22 02:13:22;;;;;;;7.00;6.10;;;;;;;30.12;41.21;100989.52;103559;1289;61305;-79
2023/08/22 02:15:48;;;;;;;7.30;5.90;;;;;;;30.12;41.17;100987.86;103610;1285;61973;-79
2023/08/22 02:18:15;;;;;;;6.80;5.60;;;;;;;30.12;41.33;100988.59;103624;1289;61370;-80
2023/08/22 02:20:41;;;;;;;6.60;5.50;;;;;;;30.13;41.23;100987.84;103586;1284;61374;-80
2023/08/22 02:23:06;;;;;;;6.70;6.00;;;;;;;30.13;41.17;100986.61;103780;1289;61759;-80
2023/08/22 02:25:32;;;;;;;6.70;5.80;;;;;;;30.11;41.19;100987.79;103592;1298;61442;-80
2023/08/22 02:27:58;;;;;;;7.80;5.90;;;;;;;30.12;41.19;100990.83;103626;1290;61361;-80
2023/08/22 02:30:24;;;;;;;6.80;5.50;;;;;;;30.12;41.10;100992.08;103598;1286;61311;-79
2023/08/22 02:32:49;;;;;;;6.40;5.80;;;;;;;30.12;41.23;100992.23;103614;1287;61436;-80
2023/08/22 02:35:15;;;;;;;5.80;5.20;;;;;;;30.12;41.28;100992.12;103535;1291;61324;-79
2023/08/22 02:37:40;;;;;;;6.70;5.90;;;;;;;30.12;41.23;100993.17;103550;1287;61392;-80
2023/08/22 02:40:09;;;;;;;7.40;5.90;;;;;;;30.12;41.09;100992.66;103733;1286;61373;-80
2023/08/22 02:42:36;;;;;;;6.20;5.50;;;;;;;30.12;41.24;100998.11;103624;1286;61392;-80
2023/08/22 02:45:02;;;;;;;6.80;6.10;;;;;;;30.11;41.36;100996.85;103482;1288;61320;-80
2023/08/22 02:47:28;;;;;;;6.80;5.60;;;;;;;30.11;41.27;100996.16;103587;1289;61316;-80
2023/08/22 02:49:53;;;;;;;6.50;5.80;;;;;;;30.11;41.19;100993.79;103609;1285;61509;-80
2023/08/22 02:52:19;;;;;;;6.60;5.70;;;;;;;30.11;41.25;100993.27;103614;1285;61263;-80
2023/08/22 02:54:45;;;;;;;8.00;5.90;;;;;;;30.11;41.37;100994.15;103531;1286;62478;-81
2023/08/22 02:57:11;;;;;;;6.60;5.90;;;;;;;30.11;41.25;100995.83;103656;1288;62013;-80
2023/08/22 02:59:38;;;;;;;7.50;6.00;;;;;;;30.11;41.28;100997.05;103660;1286;61389;-79
2023/08/22 03:02:03;;;;;;;6.20;5.60;;;;;;;30.11;41.35;100999.98;103519;1284;61364;-79
2023/08/22 03:04:30;;;;;;;8.40;6.10;;;;;;;30.11;41.31;101000.77;103632;1285;61413;-80
2023/08/22 03:06:56;;;;;;;7.20;6.00;;;;;;;30.10;41.33;100993.41;103565;1289;61357;-80
2023/08/22 03:09:22;;;;;;;6.70;5.40;;;;;;;30.11;41.40;101000.73;103534;1285;61395;-80
2023/08/22 03:11:47;;;;;;;6.50;5.80;;;;;;;30.11;41.23;101002.52;103662;1290;61459;-80
2023/08/22 03:14:13;;;;;;;6.70;6.00;;;;;;;30.11;41.37;101007.84;103706;1291;62516;-80
2023/08/22 03:16:38;;;;;;;6.90;6.10;;;;;;;30.10;41.40;101006.27;103608;1285;61491;-80
2023/08/22 03:19:04;;;;;;;6.50;5.90;;;;;;;30.10;41.22;101008.28;103638;1286;63685;-79
2023/08/22 03:21:30;;;;;;;6.60;5.90;;;;;;;30.10;41.25;101011.00;103614;1285;61417;-80
2023/08/22 03:23:55;;;;;;;8.30;6.20;;;;;;;30.09;41.32;101013.04;103583;1290;61378;-80
2023/08/22 03:26:21;;;;;;;6.60;5.90;;;;;;;30.09;41.32;101017.55;103659;1285;61463;-80
2023/08/22 03:28:46;;;;;;;6.70;5.90;;;;;;;30.10;41.28;101018.24;103667;1284;61261;-80
2023/08/22 03:31:12;;;;;;;7.20;6.10;;;;;;;30.10;41.38;101015.94;103549;1286;63955;-80
2023/08/22 03:33:37;;;;;;;7.40;6.10;;;;;;;30.10;41.37;101017.91;103654;1288;62533;-80
2023/08/22 03:36:03;;;;;;;6.40;5.70;;;;;;;30.09;41.44;101020.83;103541;1294;61591;-80
2023/08/22 03:38:29;;;;;;;8.80;5.90;;;;;;;30.09;41.32;101022.13;103334;1288;61443;-80
2023/08/22 03:40:55;;;;;;;7.00;5.70;;;;;;;30.10;41.40;101023.88;103489;1291;61358;-80
2023/08/22 03:43:21;;;;;;;6.70;6.00;;;;;;;30.10;41.39;101023.83;103483;1288;61302;-81
2023/08/22 03:45:46;;;;;;;7.10;6.40;;;;;;;30.10;41.32;101029.11;103066;1294;65817;-80
2023/08/22 03:48:12;;;;;;;7.30;6.00;;;;;;;30.10;41.43;101029.17;103061;1295;61399;-80
2023/08/22 03:50:39;;;;;;;6.60;5.80;;;;;;;30.10;41.41;101028.79;103421;1290;61411;-80
2023/08/22 03:53:05;;;;;;;6.70;5.90;;;;;;;30.09;41.36;101027.74;103463;1291;61582;-80
2023/08/22 03:55:31;;;;;;;7.10;5.80;;;;;;;30.10;41.30;101031.66;103435;1292;61441;-80
2023/08/22 03:57:58;;;;;;;6.70;6.00;;;;;;;30.10;41.30;101032.16;103352;1292;61492;-80
2023/08/22 04:00:27;;;;;;;7.60;6.10;;;;;;;30.10;41.26;101034.92;103374;1292;61302;-80
2023/08/22 04:02:56;;;;;;;7.40;6.50;;;;;;;30.10;41.35;101037.27;103441;1288;63885;-80
2023/08/22 04:05:22;;;;;;;7.00;6.30;;;;;;;30.10;41.40;101035.67;103239;1292;65852;-80
2023/08/22 04:07:48;;;;;;;7.10;6.00;;;;;;;30.10;41.34;101032.71;103397;1288;61380;-80
2023/08/22 04:10:13;;;;;;;7.20;6.30;;;;;;;30.10;41.36;101033.80;103591;1286;62041;-80
2023/08/22 04:12:39;;;;;;;6.60;5.80;;;;;;;30.11;41.33;101035.77;103554;1291;61401;-80
2023/08/22 04:15:05;;;;;;;7.20;6.50;;;;;;;30.10;41.29;101034.38;103519;1291;61408;-80
2023/08/22 04:17:31;;;;;;;7.30;6.60;;;;;;;30.11;41.23;101033.60;103703;1290;61387;-80
2023/08/22 04:19:56;;;;;;;6.90;6.20;;;;;;;30.11;41.42;101036.65;103624;1288;61401;-80
2023/08/22 04:22:22;;;;;;;8.00;6.40;;;;;;;30.11;41.36;101034.90;103481;1285;61495;-80
2023/08/22 04:24:47;;;;;;;6.90;6.20;;;;;;;30.12;41.34;101040.03;103578;1286;61322;-80
2023/08/22 04:27:13;;;;;;;7.50;6.70;;;;;;;30.11;41.42;101035.71;103598;1291;61411;-80
2023/08/22 04:29:38;;;;;;;6.90;6.20;;;;;;;30.12;41.42;101038.95;103642;1291;61371;-80
2023/08/22 04:32:04;;;;;;;7.00;6.30;;;;;;;30.11;41.48;101035.20;103686;1285;61418;-81
2023/08/22 04:34:30;;;;;;;7.50;6.20;;;;;;;30.11;41.54;101041.52;103411;1301;61347;-80
2023/08/22 04:36:55;;;;;;;7.60;6.80;;;;;;;30.11;41.45;101040.84;103529;1290;61381;-80
2023/08/22 04:39:21;;;;;;;7.80;6.90;;;;;;;30.11;41.62;101044.63;103578;1289;61376;-80
2023/08/22 04:41:46;;;;;;;7.30;6.60;;;;;;;30.11;41.60;101050.06;103574;1285;62003;-80
2023/08/22 04:44:12;;;;;;;7.60;6.10;;;;;;;30.12;41.42;101051.11;103607;1285;61379;-80
2023/08/22 04:46:37;;;;;;;8.00;6.70;;;;;;;30.12;41.46;101055.83;103568;1289;61321;-80
2023/08/22 04:49:03;;;;;;;6.90;6.20;;;;;;;30.12;41.51;101056.73;103641;1289;61435;-80
2023/08/22 04:51:28;;;;;;;7.50;6.70;;;;;;;30.12;41.39;101060.01;103467;1291;61365;-80
2023/08/22 04:53:54;;;;;;;7.30;6.40;;;;;;;30.11;41.60;101061.84;103639;1289;61396;-80
2023/08/22 04:56:21;;;;;;;7.60;6.90;;;;;;;30.11;41.53;101064.93;103552;1287;61719;-81
2023/08/22 04:58:46;;;;;;;8.40;7.30;;;;;;;30.12;41.52;101064.16;103478;1292;61421;-80
2023/08/22 05:01:12;;;;;;;10.10;8.10;;;;;;;30.12;41.54;101065.25;103504;1291;63934;-80
2023/08/22 05:03:37;;;;;;;9.40;7.70;;;;;;;30.12;41.40;101066.55;103631;1287;61401;-80
2023/08/22 05:06:03;;;;;;;10.10;7.60;;;;;;;30.11;41.37;101063.16;103592;1286;61395;-80
2023/08/22 05:08:30;;;;;;;9.50;8.30;;;;;;;30.10;41.26;101067.08;103593;1287;61385;-80
2023/08/22 05:10:55;;;;;;;9.90;8.80;;;;;;;30.09;41.28;101072.55;103494;1290;61369;-80
2023/08/22 05:13:21;;;;;;;11.30;8.70;;;;;;;30.09;41.21;101070.37;103559;1290;61399;-80
2023/08/22 05:15:46;;;;;;;11.30;8.90;;;;;;;30.08;41.12;101074.45;103585;1286;65823;-80
2023/08/22 05:18:12;;;;;;;11.20;8.90;;;;;;;30.09;40.95;101072.82;103463;1287;61510;-80
2023/08/22 05:20:40;;;;;;;11.00;8.70;;;;;;;30.08;41.09;101070.70;103538;1286;61465;-80
2023/08/22 05:23:06;;;;;;;10.40;9.50;;;;;;;30.07;41.03;101073.12;103651;1285;61354;-80
2023/08/22 05:25:31;;;;;;;10.30;8.10;;;;;;;30.08;40.94;101077.95;103660;1286;62549;-80
2023/08/22 05:27:57;;;;;;;11.80;9.10;;;;;;;30.08;40.87;101076.55;103963;1289;61397;-81
2023/08/22 05:30:23;;;;;;;12.90;9.00;;;;;;;30.08;40.93;101074.70;103793;1286;61834;-81
2023/08/22 05:32:49;;;;;;;10.20;9.10;;;;;;;30.08;40.82;101081.36;103652;1285;61399;-81
2023/08/22 05:35:14;;;;;;;15.00;9.70;;;;;;;30.09;40.83;101078.41;103608;1289;61414;-80
2023/08/22 05:37:40;;;;;;;12.70;9.50;;;;;;;30.09;40.83;101076.23;103635;1289;61408;-80
2023/08/22 05:40:08;;;;;;;11.20;9.40;;;;;;;30.09;40.82;101079.29;103593;1290;61833;-80
2023/08/22 05:42:33;;;;;;;10.90;8.30;;;;;;;30.10;40.72;101080.14;103608;1285;61410;-80
2023/08/22 05:44:59;;;;;;;11.80;9.60;;;;;;;30.10;40.68;101078.48;103477;1290;61434;-81
2023/08/22 05:47:24;;;;;;;10.20;8.80;;;;;;;30.11;40.76;101080.55;103567;1289;61927;-80
2023/08/22 05:49:50;;;;;;;9.80;8.80;;;;;;;30.12;40.77;101083.21;103801;1285;61413;-81
2023/08/22 05:52:16;;;;;;;11.30;8.70;;;;;;;30.13;40.80;101084.04;103742;1289;61926;-81
2023/08/22 05:54:43;;;;;;;9.50;8.40;;;;;;;30.13;40.80;101084.89;103664;1286;61311;-81
2023/08/22 05:57:09;;;;;;;12.50;9.80;;;;;;;30.14;40.73;101087.37;103600;1289;63797;-80
2023/08/22 05:59:34;;;;;;;11.10;9.60;;;;;;;30.14;40.63;101088.09;103534;1300;61441;-81
2023/08/22 06:02:00;;;;;;;10.10;8.90;;;;;;;30.14;40.64;101089.91;103566;1285;61384;-80
2023/08/22 06:04:25;;;;;;;11.80;9.30;;;;;;;30.14;40.75;101088.95;103544;1291;61481;-80
2023/08/22 06:06:52;;;;;;;11.10;8.60;;;;;;;30.14;40.61;101093.46;103649;1285;61390;-81
2023/08/22 06:09:17;;;;;;;10.00;8.60;;;;;;;30.15;40.62;101091.45;103925;1286;64126;-81
2023/08/22 06:11:43;;;;;;;12.40;9.00;;;;;;;30.15;40.69;101093.60;103768;1290;61392;-81
2023/08/22 06:14:09;;;;;;;10.60;8.90;;;;;;;30.15;40.76;101088.84;103520;1290;61290;-80
2023/08/22 06:16:34;;;;;;;12.70;8.80;;;;;;;30.16;40.66;101088.98;103557;1291;62638;-81
2023/08/22 06:19:01;;;;;;;11.00;9.80;;;;;;;30.16;40.55;101090.88;103504;1285;61656;-80
2023/08/22 06:21:27;;;;;;;9.90;8.70;;;;;;;30.16;40.57;101093.07;103596;1288;61420;-81
2023/08/22 06:23:52;;;;;;;11.00;8.90;;;;;;;30.17;40.57;101097.71;103848;1289;61289;-80
2023/08/22 06:26:19;;;;;;;12.50;9.20;;;;;;;30.17;40.53;101094.95;103766;1286;61275;-81
2023/08/22 06:28:46;;;;;;;10.10;9.10;;;;;;;30.18;40.55;101097.77;103731;1285;62596;-81
2023/08/22 06:31:12;;;;;;;10.90;9.60;;;;;;;30.19;40.59;101095.70;104049;1289;63631;-81
2023/08/22 06:33:37;;;;;;;10.00;9.00;;;;;;;30.20;40.55;101094.66;103632;1287;62422;-81
2023/08/22 06:36:03;;;;;;;9.90;8.80;;;;;;;30.21;40.57;101098.77;103628;1289;61367;-81
2023/08/22 06:38:29;;;;;;;11.10;9.10;;;;;;;30.22;40.53;101098.85;103565;1287;61356;-81
2023/08/22 06:40:54;;;;;;;10.80;9.20;;;;;;;30.22;40.48;101091.67;103643;1287;289887;-81
2023/08/22 06:43:22;;;;;;;10.00;8.90;;;;;;;30.24;40.40;101097.35;103932;1286;61364;-80
2023/08/22 06:45:48;;;;;;;10.20;9.10;;;;;;;30.24;40.34;101094.05;103815;1285;65603;-81
2023/08/22 06:48:13;;;;;;;11.40;8.80;;;;;;;30.25;40.38;101097.42;103768;1285;61418;-81
2023/08/22 06:50:39;;;;;;;12.70;9.30;;;;;;;30.25;40.28;101094.46;103808;1285;61477;-81
2023/08/22 06:53:04;;;;;;;10.20;9.10;;;;;;;30.26;40.34;101091.13;103642;1284;61338;-80
2023/08/22 06:55:30;;;;;;;11.20;9.10;;;;;;;30.27;40.26;101092.13;103549;1285;61398;-81
2023/08/22 06:57:56;;;;;;;10.70;9.10;;;;;;;30.27;40.23;101094.61;103665;1289;61415;-81
2023/08/22 07:00:22;;;;;;;9.40;8.40;;;;;;;30.29;40.26;101096.16;103842;1289;61321;-81
2023/08/22 07:02:47;;;;;;;12.20;9.20;;;;;;;30.29;40.09;101101.23;103602;1289;61414;-81
2023/08/22 07:05:14;;;;;;;11.60;9.70;;;;;;;30.29;40.06;101101.16;103782;1287;61839;-82
2023/08/22 07:07:40;;;;;;;12.00;9.20;;;;;;;30.30;40.04;101097.65;103868;1284;61327;-80
2023/08/22 07:10:10;;;;;;;12.00;9.00;;;;;;;30.31;40.11;101095.37;103655;1287;61426;-81
2023/08/22 07:12:37;;;;;;;12.00;9.40;;;;;;;30.29;40.05;101098.05;103689;1285;61384;-81
2023/08/22 07:15:06;;;;;;;11.10;8.90;;;;;;;30.31;40.03;101094.63;103802;1287;62495;-81
2023/08/22 07:17:32;;;;;;;10.30;8.90;;;;;;;30.32;40.07;101094.16;104003;1285;65785;-81
2023/08/22 07:19:57;;;;;;;10.80;9.00;;;;;;;30.32;40.02;101095.92;103670;1285;61376;-80
2023/08/22 07:22:23;;;;;;;10.30;9.20;;;;;;;30.33;40.05;101095.69;103604;1284;61346;-81
2023/08/22 07:24:49;;;;;;;10.10;8.70;;;;;;;30.33;39.91;101092.96;103569;1285;61310;-80
2023/08/22 07:27:15;;;;;;;10.00;8.80;;;;;;;30.34;40.06;101087.77;104163;1285;61401;-81
2023/08/22 07:29:40;;;;;;;9.90;8.40;;;;;;;30.34;39.89;101086.48;103970;1286;61446;-81
2023/08/22 07:32:08;;;;;;;9.70;8.70;;;;;;;30.35;39.89;101088.21;103761;1292;61384;-81
2023/08/22 07:34:37;;;;;;;10.10;9.00;;;;;;;30.35;39.86;101089.80;104000;1285;61324;-80
2023/08/22 07:37:03;;;;;;;9.80;8.80;;;;;;;30.35;39.93;101089.27;104128;1285;63944;-81
2023/08/22 07:39:29;;;;;;;10.40;9.00;;;;;;;30.35;39.88;101088.14;103894;1288;61421;-81
2023/08/22 07:41:55;;;;;;;10.60;8.80;;;;;;;30.36;39.80;101088.61;103845;1284;63005;-81
2023/08/22 07:44:23;;;;;;;10.40;9.00;;;;;;;30.36;39.77;101086.41;103581;1289;61374;-80
2023/08/22 07:46:51;;;;;;;13.80;9.20;;;;;;;30.37;39.79;101091.21;103805;1289;61296;-80
2023/08/22 07:49:17;;;;;;;10.00;9.10;;;;;;;30.37;39.77;101084.88;103812;1285;65599;-81
2023/08/22 07:51:43;;;;;;;11.80;8.80;;;;;;;30.37;39.72;101087.64;103689;1285;61383;-80
2023/08/22 07:54:08;;;;;;;10.00;9.00;;;;;;;30.36;39.83;101082.58;103617;1284;62951;-81
2023/08/22 07:56:35;;;;;;;9.70;8.60;;;;;;;30.37;39.83;101083.19;103814;1286;61365;-80
2023/08/22 07:59:01;;;;;;;10.70;9.30;;;;;;;30.38;39.72;101084.61;103712;1284;61356;-80
2023/08/22 08:01:27;;;;;;;11.00;8.20;;;;;;;30.38;39.60;101085.32;103967;1285;61398;-81
2023/08/22 08:03:53;;;;;;;9.50;8.60;;;;;;;30.38;39.58;101082.60;103667;1286;61423;-81
2023/08/22 08:06:19;;;;;;;9.30;8.30;;;;;;;30.38;39.53;101078.02;103761;1286;61356;-81
2023/08/22 08:08:44;;;;;;;10.00;8.90;;;;;;;30.39;39.48;101076.64;103562;1286;63717;-80
2023/08/22 08:11:10;;;;;;;12.40;8.70;;;;;;;30.39;39.41;101076.65;103598;1288;62347;-81
2023/08/22 08:13:35;;;;;;;9.70;8.60;;;;;;;30.39;39.26;101074.27;103603;1284;61399;-81
2023/08/22 08:16:01;;;;;;;9.30;8.40;;;;;;;30.40;39.34;101076.23;103532;1285;61411;-80
2023/08/22 08:18:27;;;;;;;10.90;8.90;;;;;;;30.40;39.30;101074.58;103683;1285;61491;-80
2023/08/22 08:20:52;;;;;;;10.10;8.40;;;;;;;30.39;39.30;101070.28;103631;1288;63678;-80
2023/08/22 08:23:18;;;;;;;10.10;9.10;;;;;;;30.40;39.31;101068.41;103658;1285;61450;-80
2023/08/22 08:25:44;;;;;;;12.20;8.50;;;;;;;30.39;39.25;101069.77;103512;1284;61413;-80
2023/08/22 08:28:09;;;;;;;8.70;7.60;;;;;;;30.41;39.24;101065.80;103724;1285;61290;-81
2023/08/22 08:30:35;;;;;;;9.40;8.10;;;;;;;30.40;39.13;101067.96;103501;1284;61383;-80
2023/08/22 08:33:02;;;;;;;9.20;8.20;;;;;;;30.40;39.17;101068.52;103580;1290;61503;-80
2023/08/22 08:35:28;;;;;;;9.70;8.70;;;;;;;30.41;39.07;101069.40;103675;1285;65791;-81
2023/08/22 08:37:54;;;;;;;10.60;7.80;;;;;;;30.41;39.08;101069.88;103846;1285;61378;-81
2023/08/22 08:40:19;;;;;;;9.90;8.90;;;;;;;30.41;39.12;101068.12;103630;1286;61454;-80
2023/08/22 08:42:45;;;;;;;10.10;9.10;;;;;;;30.42;39.10;101066.76;104094;1285;61344;-81
2023/08/22 08:45:12;;;;;;;10.00;8.50;;;;;;;30.42;39.21;101067.27;103672;1286;63580;-80
2023/08/22 08:47:38;;;;;;;9.80;8.00;;;;;;;30.42;39.24;101065.25;103482;1286;62480;-81
2023/08/22 08:50:06;;;;;;;11.90;8.00;;;;;;;30.43;39.08;101068.99;103653;1289;61421;-81
2023/08/22 08:52:32;;;;;;;9.30;8.30;;;;;;;30.43;39.07;101068.59;103589;1286;61297;-80
2023/08/22 08:54:59;;;;;;;9.90;7.80;;;;;;;30.43;39.05;101064.95;103737;1287;61337;-79
2023/08/22 08:57:26;;;;;;;9.40;8.20;;;;;;;30.43;39.01;101061.89;103544;1286;65982;-80
2023/08/22 08:59:53;;;;;;;9.90;8.20;;;;;;;30.43;39.02;101064.23;103533;1287;61388;-80
2023/08/22 09:02:19;;;;;;;8.80;7.90;;;;;;;30.44;38.90;101061.64;103572;1287;61315;-80
2023/08/22 09:04:45;;;;;;;9.30;8.30;;;;;;;30.44;38.76;101058.70;103463;1286;61272;-80
2023/08/22 09:07:10;;;;;;;10.90;8.20;;;;;;;30.45;38.77;101054.14;103610;1288;61372;-81
2023/08/22 09:09:36;;;;;;;9.50;8.50;;;;;;;30.44;38.84;101054.69;103700;1286;61732;-81
2023/08/22 09:12:08;;;;;;;9.70;8.70;;;;;;;30.44;38.81;101049.27;103546;1290;61383;-80
2023/08/22 09:14:34;;;;;;;10.40;8.30;;;;;;;30.44;38.86;101050.33;103530;1285;63922;-81
2023/08/22 09:17:02;;;;;;;9.20;8.00;;;;;;;30.45;38.78;101050.80;103530;1289;61309;-81
2023/08/22 09:19:32;;;;;;;10.20;7.60;;;;;;;30.45;38.68;101052.30;103528;1287;61300;-80
2023/08/22 09:21:59;;;;;;;9.60;7.60;;;;;;;30.45;38.58;101048.44;103514;1285;61334;-81
2023/08/22 09:24:25;;;;;;;10.10;8.20;;;;;;;30.45;38.60;101039.36;103657;1285;63934;-81
2023/08/22 09:26:51;;;;;;;11.10;8.40;;;;;;;30.45;38.65;101035.18;103455;1290;61297;-81
2023/08/22 09:29:27;;;;;;;9.50;8.60;;;;;;;30.46;38.63;101034.58;103505;1284;61415;-80
2023/08/22 09:31:58;;;;;;;9.20;8.10;;;;;;;30.46;38.72;101036.39;103594;1286;61360;-81
2023/08/22 09:34:24;;;;;;;9.90;7.80;;;;;;;30.46;38.66;101029.98;103571;1286;64159;-81
2023/08/22 09:36:50;;;;;;;10.20;8.00;;;;;;;30.47;38.57;101035.55;103448;1289;61397;-80
2023/08/22 09:39:16;;;;;;;8.30;7.50;;;;;;;30.47;38.45;101028.29;103486;1285;61465;-81
2023/08/22 09:41:42;;;;;;;11.10;7.90;;;;;;;30.47;38.36;101024.65;103778;1285;61808;-80
2023/08/22 09:44:10;;;;;;;8.90;7.90;;;;;;;30.48;38.22;101028.59;103377;1288;61495;-80
2023/08/22 09:46:42;;;;;;;10.90;9.10;;;;;;;30.47;38.19;101022.98;103317;1286;61384;-81
2023/08/22 09:49:11;;;;;;;9.20;8.20;;;;;;;30.48;38.15;101011.34;103188;1288;61319;-80
2023/08/22 09:51:37;;;;;;;8.90;8.00;;;;;;;30.48;38.37;101013.85;103499;1286;61337;-80
2023/08/22 09:54:04;;;;;;;9.80;8.00;;;;;;;30.48;38.63;101017.30;103369;1286;63687;-80
2023/08/22 09:56:31;;;;;;;11.90;8.20;;;;;;;30.47;38.56;101013.38;103344;1286;65836;-81
2023/08/22 09:58:59;;;;;;;9.40;8.10;;;;;;;30.47;38.41;101009.90;103454;1288;61386;-80
2023/08/22 10:01:25;;;;;;;8.70;7.70;;;;;;;30.48;38.27;101011.92;103478;1288;61309;-81
2023/08/22 10:03:53;;;;;;;8.60;7.70;;;;;;;30.47;38.19;101015.38;104011;1285;61411;-81
2023/08/22 10:06:19;;;;;;;9.50;8.00;;;;;;;30.47;38.40;101015.90;103826;1285;65959;-81
2023/08/22 10:08:48;;;;;;;9.10;8.20;;;;;;;30.47;38.21;101015.73;103726;1290;61405;-81
2023/08/22 10:11:13;;;;;;;10.20;8.00;;;;;;;30.48;38.20;101010.62;103814;1287;61248;-81
2023/08/22 10:13:39;;;;;;;9.30;7.40;;;;;;;30.48;38.27;101007.19;103729;1287;62523;-81
2023/08/22 10:16:06;;;;;;;9.60;7.90;;;;;;;30.47;38.13;101006.11;103769;1287;61436;-80
2023/08/22 10:18:32;;;;;;;8.40;7.30;;;;;;;30.48;37.99;101003.13;103928;1290;61456;-82
2023/08/22 10:20:57;;;;;;;8.10;7.30;;;;;;;30.49;38.04;101003.94;104009;1286;61378;-81
2023/08/22 10:23:51;;;;;;;8.70;7.90;;;;;;;30.48;38.17;101000.71;103513;1286;61705;-81
2023/08/22 10:26:19;;;;;;;14.00;8.20;;;;;;;30.49;38.01;101000.61;104021;1289;65744;-81
2023/08/22 10:29:05;;;;;;;8.80;7.60;;;;;;;30.51;37.92;101000.23;103615;1288;61327;-81
2023/08/22 10:31:31;;;;;;;9.00;7.70;;;;;;;30.51;37.72;100998.78;104295;1284;61408;-81
2023/08/22 10:34:00;;;;;;;10.60;7.90;;;;;;;30.53;37.67;100999.11;103969;1284;65094;-81
2023/08/22 10:36:25;;;;;;;10.50;7.40;;;;;;;30.53;37.53;100999.11;104204;1286;65868;-81
2023/08/22 10:38:56;;;;;;;9.50;7.60;;;;;;;30.53;37.66;100989.63;105155;1289;61900;-81
2023/08/22 10:41:23;;;;;;;11.10;7.90;;;;;;;30.53;37.56;100992.17;104925;1284;61395;-81
2023/08/22 10:43:49;;;;;;;8.30;7.00;;;;;;;30.54;37.63;100989.01;104728;1285;63772;-82
2023/08/22 10:46:15;;;;;;;8.70;7.70;;;;;;;30.55;37.62;100992.21;104029;1289;61266;-81
2023/08/22 10:48:41;;;;;;;8.40;7.40;;;;;;;30.55;37.56;100993.27;103828;1284;61327;-80
2023/08/22 10:51:07;;;;;;;10.40;7.80;;;;;;;30.56;37.51;100990.82;103917;1284;61731;-80
2023/08/22 10:53:43;;;;;;;9.40;7.40;;;;;;;30.56;37.37;100990.57;103686;1285;61312;-80
2023/08/22 10:56:23;;;;;;;8.00;7.20;;;;;;;30.56;37.32;100988.98;103720;1287;65894;-80
2023/08/22 10:58:59;;;;;;;9.80;7.60;;;;;;;30.56;37.48;100984.61;103675;1284;61404;-80
2023/08/22 11:01:25;;;;;;;11.70;7.70;;;;;;;30.56;37.53;100987.34;103666;1285;61396;-80
2023/08/22 11:03:51;;;;;;;10.20;7.80;;;;;;;30.56;37.26;100984.05;103653;1284;62516;-80
2023/08/22 11:06:18;;;;;;;8.80;7.60;;;;;;;30.57;37.19;100983.47;103511;1289;61350;-80
2023/08/22 11:08:44;;;;;;;7.70;6.90;;;;;;;30.56;37.16;100979.86;103712;1285;61399;-80
2023/08/22 11:11:11;;;;;;;8.60;7.70;;;;;;;30.57;37.13;100976.21;103513;1288;61944;-80